sensor_id;sensor_type;location;lat;lon;timestamp;temperature;humidity
59041;DHT22;44825;53.200;6.448;2022-08-25T00:00:18;21.50;99.90
59041;DHT22;44825;53.200;6.448;2022-08-25T00:02:45;21.50;99.90
59041;DHT22;44825;53.200;6.448;2022-08-25T00:05:13;21.50;99.90
59041;DHT22;44825;53.200;6.448;2022-08-25T00:07:40;21.50;99.90
59041;DHT22;44825;53.200;6.448;2022-08-25T00:10:08;21.50;99.90
59041;DHT22;44825;53.200;6.448;2022-08-25T00:12:37;21.50;99.90
59041;DHT22;44825;53.200;6.448;2022-08-25T00:15:05;21.50;99.90
59041;DHT22;44825;53.200;6.448;2022-08-25T00:17:34;21.50;99.90
59041;DHT22;44825;53.200;6.448;2022-08-25T00:20:02;21.50;99.90
59041;DHT22;44825;53.200;6.448;2022-08-25T00:22:30;21.50;99.90
59041;DHT22;44825;53.200;6.448;2022-08-25T00:24:57;21.50;99.90
59041;DHT22;44825;53.200;6.448;2022-08-25T00:27:24;21.50;99.90
59041;DHT22;44825;53.200;6.448;2022-08-25T00:29:53;21.50;99.90
59041;DHT22;44825;53.200;6.448;2022-08-25T00:32:21;21.50;99.90
59041;DHT22;44825;53.200;6.448;2022-08-25T00:34:49;21.50;99.90
59041;DHT22;44825;53.200;6.448;2022-08-25T00:37:16;21.50;99.80
59041;DHT22;44825;53.200;6.448;2022-08-25T00:39:44;21.40;99.80
59041;DHT22;44825;53.200;6.448;2022-08-25T00:42:11;21.40;99.70
59041;DHT22;44825;53.200;6.448;2022-08-25T00:44:39;21.30;99.60
59041;DHT22;44825;53.200;6.448;2022-08-25T00:47:10;21.30;99.70
59041;DHT22;44825;53.200;6.448;2022-08-25T00:49:42;21.30;99.60
59041;DHT22;44825;53.200;6.448;2022-08-25T00:52:12;21.30;99.40
59041;DHT22;44825;53.200;6.448;2022-08-25T00:54:45;21.30;99.30
59041;DHT22;44825;53.200;6.448;2022-08-25T00:57:16;21.30;99.20
59041;DHT22;44825;53.200;6.448;2022-08-25T00:59:44;21.30;99.20
59041;DHT22;44825;53.200;6.448;2022-08-25T01:02:14;21.30;99.20
59041;DHT22;44825;53.200;6.448;2022-08-25T01:04:42;21.30;99.20
59041;DHT22;44825;53.200;6.448;2022-08-25T01:07:10;21.30;99.30
59041;DHT22;44825;53.200;6.448;2022-08-25T01:09:38;21.30;99.30
59041;DHT22;44825;53.200;6.448;2022-08-25T01:12:05;21.30;99.40
59041;DHT22;44825;53.200;6.448;2022-08-25T01:14:33;21.30;99.50
59041;DHT22;44825;53.200;6.448;2022-08-25T01:17:01;21.20;99.50
59041;DHT22;44825;53.200;6.448;2022-08-25T01:19:30;21.20;99.50
59041;DHT22;44825;53.200;6.448;2022-08-25T01:21:59;21.20;99.50
59041;DHT22;44825;53.200;6.448;2022-08-25T01:24:33;21.10;99.50
59041;DHT22;44825;53.200;6.448;2022-08-25T01:27:01;21.10;99.50
59041;DHT22;44825;53.200;6.448;2022-08-25T01:29:29;21.10;99.50
59041;DHT22;44825;53.200;6.448;2022-08-25T01:31:58;21.10;99.40
59041;DHT22;44825;53.200;6.448;2022-08-25T01:34:27;21.10;99.30
59041;DHT22;44825;53.200;6.448;2022-08-25T01:36:56;21.00;99.30
59041;DHT22;44825;53.200;6.448;2022-08-25T01:39:27;20.90;99.30
59041;DHT22;44825;53.200;6.448;2022-08-25T01:42:08;20.90;99.20
59041;DHT22;44825;53.200;6.448;2022-08-25T01:44:39;20.90;99.20
59041;DHT22;44825;53.200;6.448;2022-08-25T01:47:07;20.80;98.90
59041;DHT22;44825;53.200;6.448;2022-08-25T01:49:34;20.70;99.20
59041;DHT22;44825;53.200;6.448;2022-08-25T01:52:10;20.70;99.00
59041;DHT22;44825;53.200;6.448;2022-08-25T01:54:39;20.70;98.90
59041;DHT22;44825;53.200;6.448;2022-08-25T01:57:07;20.70;98.90
59041;DHT22;44825;53.200;6.448;2022-08-25T01:59:35;20.70;98.80
59041;DHT22;44825;53.200;6.448;2022-08-25T02:02:02;20.60;98.90
59041;DHT22;44825;53.200;6.448;2022-08-25T02:04:29;20.60;99.00
59041;DHT22;44825;53.200;6.448;2022-08-25T02:06:57;20.70;98.90
59041;DHT22;44825;53.200;6.448;2022-08-25T02:09:25;20.60;98.90
59041;DHT22;44825;53.200;6.448;2022-08-25T02:11:53;20.70;98.80
59041;DHT22;44825;53.200;6.448;2022-08-25T02:14:21;20.60;98.70
59041;DHT22;44825;53.200;6.448;2022-08-25T02:16:51;20.60;98.70
59041;DHT22;44825;53.200;6.448;2022-08-25T02:19:20;20.60;98.70
59041;DHT22;44825;53.200;6.448;2022-08-25T02:21:48;20.60;98.70
59041;DHT22;44825;53.200;6.448;2022-08-25T02:24:16;20.60;98.70
59041;DHT22;44825;53.200;6.448;2022-08-25T02:26:44;20.50;98.60
59041;DHT22;44825;53.200;6.448;2022-08-25T02:29:13;20.50;98.60
59041;DHT22;44825;53.200;6.448;2022-08-25T02:31:42;20.50;98.70
59041;DHT22;44825;53.200;6.448;2022-08-25T02:34:10;20.50;98.70
59041;DHT22;44825;53.200;6.448;2022-08-25T02:36:38;20.50;98.70
59041;DHT22;44825;53.200;6.448;2022-08-25T02:39:07;20.50;98.60
59041;DHT22;44825;53.200;6.448;2022-08-25T02:41:35;20.50;98.60
59041;DHT22;44825;53.200;6.448;2022-08-25T02:44:04;20.50;98.50
59041;DHT22;44825;53.200;6.448;2022-08-25T02:46:33;20.50;98.40
59041;DHT22;44825;53.200;6.448;2022-08-25T02:49:01;20.50;98.30
59041;DHT22;44825;53.200;6.448;2022-08-25T02:51:29;20.50;98.30
59041;DHT22;44825;53.200;6.448;2022-08-25T02:53:58;20.50;98.30
59041;DHT22;44825;53.200;6.448;2022-08-25T02:56:27;20.40;98.30
59041;DHT22;44825;53.200;6.448;2022-08-25T02:58:55;20.40;98.40
59041;DHT22;44825;53.200;6.448;2022-08-25T03:01:22;20.40;98.30
59041;DHT22;44825;53.200;6.448;2022-08-25T03:03:51;20.40;98.30
59041;DHT22;44825;53.200;6.448;2022-08-25T03:06:20;20.30;98.30
59041;DHT22;44825;53.200;6.448;2022-08-25T03:08:49;20.30;98.20
59041;DHT22;44825;53.200;6.448;2022-08-25T03:11:16;20.30;98.20
59041;DHT22;44825;53.200;6.448;2022-08-25T03:13:44;20.20;98.10
59041;DHT22;44825;53.200;6.448;2022-08-25T03:16:14;20.20;98.20
59041;DHT22;44825;53.200;6.448;2022-08-25T03:18:41;20.10;98.30
59041;DHT22;44825;53.200;6.448;2022-08-25T03:21:11;20.10;98.40
59041;DHT22;44825;53.200;6.448;2022-08-25T03:23:39;20.10;98.50
59041;DHT22;44825;53.200;6.448;2022-08-25T03:26:07;20.10;98.50
59041;DHT22;44825;53.200;6.448;2022-08-25T03:28:52;20.10;98.50
59041;DHT22;44825;53.200;6.448;2022-08-25T03:31:20;20.10;98.50
59041;DHT22;44825;53.200;6.448;2022-08-25T03:33:48;20.10;98.40
59041;DHT22;44825;53.200;6.448;2022-08-25T03:36:16;20.10;98.50
59041;DHT22;44825;53.200;6.448;2022-08-25T03:38:44;20.10;98.40
59041;DHT22;44825;53.200;6.448;2022-08-25T03:41:13;20.00;98.50
59041;DHT22;44825;53.200;6.448;2022-08-25T03:43:41;20.00;98.60
59041;DHT22;44825;53.200;6.448;2022-08-25T03:46:15;20.00;98.60
59041;DHT22;44825;53.200;6.448;2022-08-25T03:48:42;20.00;98.60
59041;DHT22;44825;53.200;6.448;2022-08-25T03:51:09;20.00;98.60
59041;DHT22;44825;53.200;6.448;2022-08-25T03:53:38;20.00;98.60
59041;DHT22;44825;53.200;6.448;2022-08-25T03:56:05;20.00;98.60
59041;DHT22;44825;53.200;6.448;2022-08-25T03:58:33;20.00;98.70
59041;DHT22;44825;53.200;6.448;2022-08-25T04:01:00;20.00;98.70
59041;DHT22;44825;53.200;6.448;2022-08-25T04:03:27;19.90;98.70
59041;DHT22;44825;53.200;6.448;2022-08-25T04:05:55;20.00;98.80
59041;DHT22;44825;53.200;6.448;2022-08-25T04:08:26;20.00;98.80
59041;DHT22;44825;53.200;6.448;2022-08-25T04:10:55;19.90;98.80
59041;DHT22;44825;53.200;6.448;2022-08-25T04:13:22;19.90;98.80
59041;DHT22;44825;53.200;6.448;2022-08-25T04:15:50;19.90;98.80
59041;DHT22;44825;53.200;6.448;2022-08-25T04:18:17;19.90;98.80
59041;DHT22;44825;53.200;6.448;2022-08-25T04:20:44;19.90;98.80
59041;DHT22;44825;53.200;6.448;2022-08-25T04:23:12;19.90;98.70
59041;DHT22;44825;53.200;6.448;2022-08-25T04:25:40;20.00;98.70
59041;DHT22;44825;53.200;6.448;2022-08-25T04:28:09;19.90;98.70
59041;DHT22;44825;53.200;6.448;2022-08-25T04:30:40;19.90;98.60
59041;DHT22;44825;53.200;6.448;2022-08-25T04:33:08;19.90;98.60
59041;DHT22;44825;53.200;6.448;2022-08-25T04:35:35;19.90;98.60
59041;DHT22;44825;53.200;6.448;2022-08-25T04:38:03;19.90;98.50
59041;DHT22;44825;53.200;6.448;2022-08-25T04:40:30;20.00;98.50
59041;DHT22;44825;53.200;6.448;2022-08-25T04:42:57;19.90;98.50
59041;DHT22;44825;53.200;6.448;2022-08-25T04:45:26;19.90;98.50
59041;DHT22;44825;53.200;6.448;2022-08-25T04:47:54;19.90;98.70
59041;DHT22;44825;53.200;6.448;2022-08-25T04:50:25;19.90;98.50
59041;DHT22;44825;53.200;6.448;2022-08-25T04:52:53;19.90;98.50
59041;DHT22;44825;53.200;6.448;2022-08-25T04:55:20;19.90;98.50
59041;DHT22;44825;53.200;6.448;2022-08-25T04:57:47;19.90;98.40
59041;DHT22;44825;53.200;6.448;2022-08-25T05:00:16;19.90;98.40
59041;DHT22;44825;53.200;6.448;2022-08-25T05:02:44;19.90;98.40
59041;DHT22;44825;53.200;6.448;2022-08-25T05:05:12;20.00;98.40
59041;DHT22;44825;53.200;6.448;2022-08-25T05:07:39;20.10;98.40
59041;DHT22;44825;53.200;6.448;2022-08-25T05:10:07;20.00;98.40
59041;DHT22;44825;53.200;6.448;2022-08-25T05:12:34;20.00;98.30
59041;DHT22;44825;53.200;6.448;2022-08-25T05:15:01;20.00;98.30
59041;DHT22;44825;53.200;6.448;2022-08-25T05:17:51;20.10;98.40
59041;DHT22;44825;53.200;6.448;2022-08-25T05:20:18;20.10;98.40
59041;DHT22;44825;53.200;6.448;2022-08-25T05:22:45;20.30;98.50
59041;DHT22;44825;53.200;6.448;2022-08-25T05:25:13;20.40;98.40
59041;DHT22;44825;53.200;6.448;2022-08-25T05:27:41;20.40;98.20
59041;DHT22;44825;53.200;6.448;2022-08-25T05:30:09;20.50;98.20
59041;DHT22;44825;53.200;6.448;2022-08-25T05:32:37;20.70;98.00
59041;DHT22;44825;53.200;6.448;2022-08-25T05:35:07;20.90;97.80
59041;DHT22;44825;53.200;6.448;2022-08-25T05:37:34;21.20;97.50
59041;DHT22;44825;53.200;6.448;2022-08-25T05:40:03;21.30;97.40
59041;DHT22;44825;53.200;6.448;2022-08-25T05:42:31;21.40;97.30
59041;DHT22;44825;53.200;6.448;2022-08-25T05:44:59;21.40;97.20
59041;DHT22;44825;53.200;6.448;2022-08-25T05:47:26;21.50;97.00
59041;DHT22;44825;53.200;6.448;2022-08-25T05:49:53;21.60;96.90
59041;DHT22;44825;53.200;6.448;2022-08-25T05:52:22;21.60;97.00
59041;DHT22;44825;53.200;6.448;2022-08-25T05:54:49;21.60;96.90
59041;DHT22;44825;53.200;6.448;2022-08-25T05:57:17;21.70;96.90
59041;DHT22;44825;53.200;6.448;2022-08-25T05:59:44;21.70;96.90
59041;DHT22;44825;53.200;6.448;2022-08-25T06:02:11;21.70;96.90
59041;DHT22;44825;53.200;6.448;2022-08-25T06:04:56;21.80;96.90
59041;DHT22;44825;53.200;6.448;2022-08-25T06:07:25;21.80;96.70
59041;DHT22;44825;53.200;6.448;2022-08-25T06:09:52;21.80;96.70
59041;DHT22;44825;53.200;6.448;2022-08-25T06:12:20;21.80;96.70
59041;DHT22;44825;53.200;6.448;2022-08-25T06:14:47;21.90;96.80
59041;DHT22;44825;53.200;6.448;2022-08-25T06:17:15;21.90;96.80
59041;DHT22;44825;53.200;6.448;2022-08-25T06:19:42;21.90;96.80
59041;DHT22;44825;53.200;6.448;2022-08-25T06:22:10;21.90;96.70
59041;DHT22;44825;53.200;6.448;2022-08-25T06:24:39;22.00;96.70
59041;DHT22;44825;53.200;6.448;2022-08-25T06:27:06;22.00;96.30
59041;DHT22;44825;53.200;6.448;2022-08-25T06:29:33;22.00;96.10
59041;DHT22;44825;53.200;6.448;2022-08-25T06:32:00;22.00;96.20
59041;DHT22;44825;53.200;6.448;2022-08-25T06:34:28;22.00;96.40
59041;DHT22;44825;53.200;6.448;2022-08-25T06:36:55;22.00;96.50
59041;DHT22;44825;53.200;6.448;2022-08-25T06:39:22;22.10;96.20
59041;DHT22;44825;53.200;6.448;2022-08-25T06:41:52;22.10;96.10
59041;DHT22;44825;53.200;6.448;2022-08-25T06:44:20;22.20;96.10
59041;DHT22;44825;53.200;6.448;2022-08-25T06:46:48;22.20;95.90
59041;DHT22;44825;53.200;6.448;2022-08-25T06:49:15;22.20;95.90
59041;DHT22;44825;53.200;6.448;2022-08-25T06:51:43;22.20;95.90
59041;DHT22;44825;53.200;6.448;2022-08-25T06:54:11;22.20;96.10
59041;DHT22;44825;53.200;6.448;2022-08-25T06:56:39;22.20;96.00
59041;DHT22;44825;53.200;6.448;2022-08-25T06:59:09;22.30;96.10
59041;DHT22;44825;53.200;6.448;2022-08-25T07:01:36;22.30;96.30
59041;DHT22;44825;53.200;6.448;2022-08-25T07:04:05;22.30;96.50
59041;DHT22;44825;53.200;6.448;2022-08-25T07:06:33;22.40;96.30
59041;DHT22;44825;53.200;6.448;2022-08-25T07:09:02;22.40;96.10
59041;DHT22;44825;53.200;6.448;2022-08-25T07:11:30;22.50;96.00
59041;DHT22;44825;53.200;6.448;2022-08-25T07:14:00;22.50;95.80
59041;DHT22;44825;53.200;6.448;2022-08-25T07:16:29;22.50;95.70
59041;DHT22;44825;53.200;6.448;2022-08-25T07:18:57;22.50;95.80
59041;DHT22;44825;53.200;6.448;2022-08-25T07:21:26;22.60;95.80
59041;DHT22;44825;53.200;6.448;2022-08-25T07:23:54;22.60;95.80
59041;DHT22;44825;53.200;6.448;2022-08-25T07:26:26;22.70;95.60
59041;DHT22;44825;53.200;6.448;2022-08-25T07:28:54;22.70;96.00
59041;DHT22;44825;53.200;6.448;2022-08-25T07:31:22;22.80;95.70
59041;DHT22;44825;53.200;6.448;2022-08-25T07:33:50;22.90;95.70
59041;DHT22;44825;53.200;6.448;2022-08-25T07:36:46;23.00;95.70
59041;DHT22;44825;53.200;6.448;2022-08-25T07:39:13;23.00;95.50
59041;DHT22;44825;53.200;6.448;2022-08-25T07:41:42;23.10;95.30
59041;DHT22;44825;53.200;6.448;2022-08-25T07:44:11;23.10;95.40
59041;DHT22;44825;53.200;6.448;2022-08-25T07:46:39;23.20;95.20
59041;DHT22;44825;53.200;6.448;2022-08-25T07:49:08;23.20;95.20
59041;DHT22;44825;53.200;6.448;2022-08-25T07:51:35;23.30;94.80
59041;DHT22;44825;53.200;6.448;2022-08-25T07:54:04;23.30;94.90
59041;DHT22;44825;53.200;6.448;2022-08-25T07:56:32;23.40;95.00
59041;DHT22;44825;53.200;6.448;2022-08-25T07:58:59;23.40;95.00
59041;DHT22;44825;53.200;6.448;2022-08-25T08:01:26;23.50;94.80
59041;DHT22;44825;53.200;6.448;2022-08-25T08:03:54;23.50;94.50
59041;DHT22;44825;53.200;6.448;2022-08-25T08:06:23;23.60;94.10
59041;DHT22;44825;53.200;6.448;2022-08-25T08:08:52;23.60;94.30
59041;DHT22;44825;53.200;6.448;2022-08-25T08:11:24;23.70;94.60
59041;DHT22;44825;53.200;6.448;2022-08-25T08:13:53;23.70;94.70
59041;DHT22;44825;53.200;6.448;2022-08-25T08:16:23;23.90;94.90
59041;DHT22;44825;53.200;6.448;2022-08-25T08:18:51;23.90;94.90
59041;DHT22;44825;53.200;6.448;2022-08-25T08:21:22;24.00;94.10
59041;DHT22;44825;53.200;6.448;2022-08-25T08:23:52;24.00;93.80
59041;DHT22;44825;53.200;6.448;2022-08-25T08:26:20;24.20;93.70
59041;DHT22;44825;53.200;6.448;2022-08-25T08:28:47;24.30;94.10
59041;DHT22;44825;53.200;6.448;2022-08-25T08:31:16;24.30;93.40
59041;DHT22;44825;53.200;6.448;2022-08-25T08:33:44;24.40;93.40
59041;DHT22;44825;53.200;6.448;2022-08-25T08:36:13;24.60;93.20
59041;DHT22;44825;53.200;6.448;2022-08-25T08:38:42;24.70;93.00
59041;DHT22;44825;53.200;6.448;2022-08-25T08:41:20;24.90;92.60
59041;DHT22;44825;53.200;6.448;2022-08-25T08:44:17;25.10;92.30
59041;DHT22;44825;53.200;6.448;2022-08-25T08:46:51;25.30;92.10
59041;DHT22;44825;53.200;6.448;2022-08-25T08:49:26;25.30;92.30
59041;DHT22;44825;53.200;6.448;2022-08-25T08:52:00;25.40;92.20
59041;DHT22;44825;53.200;6.448;2022-08-25T08:54:31;25.40;92.20
59041;DHT22;44825;53.200;6.448;2022-08-25T08:57:08;25.40;92.10
59041;DHT22;44825;53.200;6.448;2022-08-25T08:59:46;25.50;91.80
59041;DHT22;44825;53.200;6.448;2022-08-25T09:02:22;25.50;91.60
59041;DHT22;44825;53.200;6.448;2022-08-25T09:04:53;25.70;91.50
59041;DHT22;44825;53.200;6.448;2022-08-25T09:07:26;25.80;91.40
59041;DHT22;44825;53.200;6.448;2022-08-25T09:09:57;25.80;91.20
59041;DHT22;44825;53.200;6.448;2022-08-25T09:12:33;25.90;91.00
59041;DHT22;44825;53.200;6.448;2022-08-25T09:15:08;26.00;90.40
59041;DHT22;44825;53.200;6.448;2022-08-25T09:17:56;26.10;90.70
59041;DHT22;44825;53.200;6.448;2022-08-25T09:20:45;26.20;90.60
59041;DHT22;44825;53.200;6.448;2022-08-25T09:23:27;26.30;89.90
59041;DHT22;44825;53.200;6.448;2022-08-25T09:26:06;26.40;89.10
59041;DHT22;44825;53.200;6.448;2022-08-25T09:28:44;26.50;88.10
59041;DHT22;44825;53.200;6.448;2022-08-25T09:31:17;26.60;88.50
59041;DHT22;44825;53.200;6.448;2022-08-25T09:33:45;26.70;88.00
59041;DHT22;44825;53.200;6.448;2022-08-25T09:36:13;26.70;87.40
59041;DHT22;44825;53.200;6.448;2022-08-25T09:38:41;26.90;86.60
59041;DHT22;44825;53.200;6.448;2022-08-25T09:41:08;26.90;86.00
59041;DHT22;44825;53.200;6.448;2022-08-25T09:43:40;27.00;84.90
59041;DHT22;44825;53.200;6.448;2022-08-25T09:46:11;27.10;83.50
59041;DHT22;44825;53.200;6.448;2022-08-25T09:48:44;27.20;82.80
59041;DHT22;44825;53.200;6.448;2022-08-25T09:51:18;27.20;82.70
59041;DHT22;44825;53.200;6.448;2022-08-25T09:53:52;27.30;83.00
59041;DHT22;44825;53.200;6.448;2022-08-25T09:56:22;27.40;81.70
59041;DHT22;44825;53.200;6.448;2022-08-25T09:58:51;27.50;80.00
59041;DHT22;44825;53.200;6.448;2022-08-25T10:01:21;27.50;79.00
59041;DHT22;44825;53.200;6.448;2022-08-25T10:03:54;27.60;78.50
59041;DHT22;44825;53.200;6.448;2022-08-25T10:06:22;27.60;76.90
59041;DHT22;44825;53.200;6.448;2022-08-25T10:08:56;27.70;76.50
59041;DHT22;44825;53.200;6.448;2022-08-25T10:11:40;27.70;76.10
59041;DHT22;44825;53.200;6.448;2022-08-25T10:14:27;27.80;73.80
59041;DHT22;44825;53.200;6.448;2022-08-25T10:17:15;27.80;73.00
59041;DHT22;44825;53.200;6.448;2022-08-25T10:19:49;27.90;71.90
59041;DHT22;44825;53.200;6.448;2022-08-25T10:22:22;28.00;72.30
59041;DHT22;44825;53.200;6.448;2022-08-25T10:24:52;28.10;73.00
59041;DHT22;44825;53.200;6.448;2022-08-25T10:27:26;28.20;72.40
59041;DHT22;44825;53.200;6.448;2022-08-25T10:30:07;28.20;70.50
59041;DHT22;44825;53.200;6.448;2022-08-25T10:35:43;28.30;70.30
59041;DHT22;44825;53.200;6.448;2022-08-25T10:38:34;28.30;68.60
59041;DHT22;44825;53.200;6.448;2022-08-25T10:41:11;28.40;66.90
59041;DHT22;44825;53.200;6.448;2022-08-25T10:43:47;28.40;67.20
59041;DHT22;44825;53.200;6.448;2022-08-25T10:46:26;28.50;67.70
59041;DHT22;44825;53.200;6.448;2022-08-25T10:48:58;28.50;66.60
59041;DHT22;44825;53.200;6.448;2022-08-25T10:51:43;28.50;65.60
59041;DHT22;44825;53.200;6.448;2022-08-25T10:54:23;28.50;63.50
59041;DHT22;44825;53.200;6.448;2022-08-25T10:57:04;28.50;63.70
59041;DHT22;44825;53.200;6.448;2022-08-25T10:59:54;28.60;63.40
59041;DHT22;44825;53.200;6.448;2022-08-25T11:05:37;28.60;62.00
59041;DHT22;44825;53.200;6.448;2022-08-25T11:08:10;28.60;62.40
59041;DHT22;44825;53.200;6.448;2022-08-25T11:10:45;28.70;62.40
59041;DHT22;44825;53.200;6.448;2022-08-25T11:13:20;28.70;61.80
59041;DHT22;44825;53.200;6.448;2022-08-25T11:15:52;28.70;61.90
59041;DHT22;44825;53.200;6.448;2022-08-25T11:18:21;28.70;62.10
59041;DHT22;44825;53.200;6.448;2022-08-25T11:21:01;28.80;62.30
59041;DHT22;44825;53.200;6.448;2022-08-25T11:23:34;28.80;61.70
59041;DHT22;44825;53.200;6.448;2022-08-25T11:26:07;28.80;61.30
59041;DHT22;44825;53.200;6.448;2022-08-25T11:28:47;28.80;61.90
59041;DHT22;44825;53.200;6.448;2022-08-25T11:31:18;28.80;62.30
59041;DHT22;44825;53.200;6.448;2022-08-25T11:33:47;28.80;62.00
59041;DHT22;44825;53.200;6.448;2022-08-25T11:36:24;28.80;61.90
59041;DHT22;44825;53.200;6.448;2022-08-25T11:39:06;28.90;61.40
59041;DHT22;44825;53.200;6.448;2022-08-25T11:41:42;28.90;61.30
59041;DHT22;44825;53.200;6.448;2022-08-25T11:44:42;28.90;59.90
59041;DHT22;44825;53.200;6.448;2022-08-25T11:47:29;28.90;59.40
59041;DHT22;44825;53.200;6.448;2022-08-25T11:50:02;28.90;58.20
59041;DHT22;44825;53.200;6.448;2022-08-25T11:52:50;28.90;58.60
59041;DHT22;44825;53.200;6.448;2022-08-25T11:55:22;28.90;57.90
59041;DHT22;44825;53.200;6.448;2022-08-25T11:57:51;28.90;58.20
59041;DHT22;44825;53.200;6.448;2022-08-25T12:00:38;28.90;57.60
59041;DHT22;44825;53.200;6.448;2022-08-25T12:03:44;28.80;57.10
59041;DHT22;44825;53.200;6.448;2022-08-25T12:06:24;28.80;56.10
59041;DHT22;44825;53.200;6.448;2022-08-25T12:09:18;28.80;57.70
59041;DHT22;44825;53.200;6.448;2022-08-25T12:11:53;28.80;58.20
59041;DHT22;44825;53.200;6.448;2022-08-25T12:14:45;28.80;57.90
59041;DHT22;44825;53.200;6.448;2022-08-25T12:17:25;28.80;58.80
59041;DHT22;44825;53.200;6.448;2022-08-25T12:19:56;28.80;55.00
59041;DHT22;44825;53.200;6.448;2022-08-25T12:22:54;28.70;55.80
59041;DHT22;44825;53.200;6.448;2022-08-25T12:25:48;28.80;56.10
59041;DHT22;44825;53.200;6.448;2022-08-25T12:28:33;28.70;56.00
59041;DHT22;44825;53.200;6.448;2022-08-25T12:31:08;28.70;56.40
59041;DHT22;44825;53.200;6.448;2022-08-25T12:33:50;28.70;55.20
59041;DHT22;44825;53.200;6.448;2022-08-25T12:36:28;28.70;55.40
59041;DHT22;44825;53.200;6.448;2022-08-25T12:39:15;28.70;55.70
59041;DHT22;44825;53.200;6.448;2022-08-25T12:41:55;28.70;55.80
59041;DHT22;44825;53.200;6.448;2022-08-25T12:44:37;28.70;54.80
59041;DHT22;44825;53.200;6.448;2022-08-25T12:47:11;28.70;57.50
59041;DHT22;44825;53.200;6.448;2022-08-25T12:49:39;28.70;57.00
59041;DHT22;44825;53.200;6.448;2022-08-25T12:52:12;28.70;56.60
59041;DHT22;44825;53.200;6.448;2022-08-25T12:54:46;28.70;56.00
59041;DHT22;44825;53.200;6.448;2022-08-25T12:57:22;28.70;56.20
59041;DHT22;44825;53.200;6.448;2022-08-25T12:59:53;28.60;55.90
59041;DHT22;44825;53.200;6.448;2022-08-25T13:02:45;28.60;55.30
59041;DHT22;44825;53.200;6.448;2022-08-25T13:08:27;28.60;54.60
59041;DHT22;44825;53.200;6.448;2022-08-25T13:11:06;28.60;54.90
59041;DHT22;44825;53.200;6.448;2022-08-25T13:13:50;28.60;55.10
59041;DHT22;44825;53.200;6.448;2022-08-25T13:16:22;28.60;55.50
59041;DHT22;44825;53.200;6.448;2022-08-25T13:18:49;28.60;55.60
59041;DHT22;44825;53.200;6.448;2022-08-25T13:21:18;28.60;55.50
59041;DHT22;44825;53.200;6.448;2022-08-25T13:23:49;28.60;55.00
59041;DHT22;44825;53.200;6.448;2022-08-25T13:26:22;28.50;54.70
59041;DHT22;44825;53.200;6.448;2022-08-25T13:28:57;28.50;54.20
59041;DHT22;44825;53.200;6.448;2022-08-25T13:31:26;28.50;52.30
59041;DHT22;44825;53.200;6.448;2022-08-25T13:33:56;28.50;53.70
59041;DHT22;44825;53.200;6.448;2022-08-25T13:36:25;28.40;52.90
59041;DHT22;44825;53.200;6.448;2022-08-25T13:39:12;28.40;53.60
59041;DHT22;44825;53.200;6.448;2022-08-25T13:41:44;28.40;53.80
59041;DHT22;44825;53.200;6.448;2022-08-25T13:44:14;28.40;53.10
59041;DHT22;44825;53.200;6.448;2022-08-25T13:46:42;28.40;53.50
59041;DHT22;44825;53.200;6.448;2022-08-25T13:49:11;28.40;53.60
59041;DHT22;44825;53.200;6.448;2022-08-25T13:51:50;28.40;53.50
59041;DHT22;44825;53.200;6.448;2022-08-25T13:54:24;28.40;53.40
59041;DHT22;44825;53.200;6.448;2022-08-25T13:56:51;28.40;53.40
59041;DHT22;44825;53.200;6.448;2022-08-25T13:59:23;28.30;52.90
59041;DHT22;44825;53.200;6.448;2022-08-25T14:01:53;28.30;53.80
59041;DHT22;44825;53.200;6.448;2022-08-25T14:04:26;28.30;53.80
59041;DHT22;44825;53.200;6.448;2022-08-25T14:09:52;28.30;52.20
59041;DHT22;44825;53.200;6.448;2022-08-25T14:12:32;28.30;52.60
59041;DHT22;44825;53.200;6.448;2022-08-25T14:15:05;28.30;52.90
59041;DHT22;44825;53.200;6.448;2022-08-25T14:17:33;28.30;52.50
59041;DHT22;44825;53.200;6.448;2022-08-25T14:20:01;28.20;53.10
59041;DHT22;44825;53.200;6.448;2022-08-25T14:22:28;28.20;52.90
59041;DHT22;44825;53.200;6.448;2022-08-25T14:24:55;28.20;52.60
59041;DHT22;44825;53.200;6.448;2022-08-25T14:27:23;28.10;52.40
59041;DHT22;44825;53.200;6.448;2022-08-25T14:29:50;28.10;53.40
59041;DHT22;44825;53.200;6.448;2022-08-25T14:32:19;28.10;53.80
59041;DHT22;44825;53.200;6.448;2022-08-25T14:34:46;28.10;53.80
59041;DHT22;44825;53.200;6.448;2022-08-25T14:37:15;28.10;53.20
59041;DHT22;44825;53.200;6.448;2022-08-25T14:39:44;28.10;53.40
59041;DHT22;44825;53.200;6.448;2022-08-25T14:42:11;28.10;52.90
59041;DHT22;44825;53.200;6.448;2022-08-25T14:44:39;28.10;53.00
59041;DHT22;44825;53.200;6.448;2022-08-25T14:47:06;28.10;54.60
59041;DHT22;44825;53.200;6.448;2022-08-25T14:49:37;28.10;54.50
59041;DHT22;44825;53.200;6.448;2022-08-25T14:52:09;28.10;54.70
59041;DHT22;44825;53.200;6.448;2022-08-25T14:54:39;28.10;54.40
59041;DHT22;44825;53.200;6.448;2022-08-25T14:57:06;28.10;55.00
59041;DHT22;44825;53.200;6.448;2022-08-25T14:59:34;28.10;55.70
59041;DHT22;44825;53.200;6.448;2022-08-25T15:02:01;28.10;56.10
59041;DHT22;44825;53.200;6.448;2022-08-25T15:04:29;28.10;55.70
59041;DHT22;44825;53.200;6.448;2022-08-25T15:07:00;28.10;55.20
59041;DHT22;44825;53.200;6.448;2022-08-25T15:09:48;28.10;54.60
59041;DHT22;44825;53.200;6.448;2022-08-25T15:12:14;28.10;55.60
59041;DHT22;44825;53.200;6.448;2022-08-25T15:14:41;28.00;55.00
59041;DHT22;44825;53.200;6.448;2022-08-25T15:17:09;28.10;55.60
59041;DHT22;44825;53.200;6.448;2022-08-25T15:19:37;28.10;56.20
59041;DHT22;44825;53.200;6.448;2022-08-25T15:22:06;28.10;55.80
59041;DHT22;44825;53.200;6.448;2022-08-25T15:24:33;28.00;55.70
59041;DHT22;44825;53.200;6.448;2022-08-25T15:27:03;28.00;55.70
59041;DHT22;44825;53.200;6.448;2022-08-25T15:29:32;28.00;55.50
59041;DHT22;44825;53.200;6.448;2022-08-25T15:32:03;28.00;56.10
59041;DHT22;44825;53.200;6.448;2022-08-25T15:34:32;28.00;56.40
59041;DHT22;44825;53.200;6.448;2022-08-25T15:37:07;28.00;55.10
59041;DHT22;44825;53.200;6.448;2022-08-25T15:39:35;28.00;54.40
59041;DHT22;44825;53.200;6.448;2022-08-25T15:42:04;28.00;56.00
59041;DHT22;44825;53.200;6.448;2022-08-25T15:44:32;28.00;56.90
59041;DHT22;44825;53.200;6.448;2022-08-25T15:46:59;27.90;56.70
59041;DHT22;44825;53.200;6.448;2022-08-25T15:49:27;27.90;56.70
59041;DHT22;44825;53.200;6.448;2022-08-25T15:51:55;27.90;56.30
59041;DHT22;44825;53.200;6.448;2022-08-25T15:54:24;27.90;56.20
59041;DHT22;44825;53.200;6.448;2022-08-25T15:56:52;27.90;56.90
59041;DHT22;44825;53.200;6.448;2022-08-25T15:59:19;27.90;57.10
59041;DHT22;44825;53.200;6.448;2022-08-25T16:01:47;27.80;57.60
59041;DHT22;44825;53.200;6.448;2022-08-25T16:04:18;27.80;57.20
59041;DHT22;44825;53.200;6.448;2022-08-25T16:06:46;27.80;57.40